sensor_id;sensor_type;location;lat;lon;timestamp;temperature;humidity
33109;HTU21D;19481;51.118;6.940;2023-03-11T00:03:39;2.17;73.15
33109;HTU21D;19481;51.118;6.940;2023-03-11T00:08:42;2.16;73.10
33109;HTU21D;19481;51.118;6.940;2023-03-11T00:13:44;2.20;73.16
33109;HTU21D;19481;51.118;6.940;2023-03-11T00:18:49;2.19;73.22
33109;HTU21D;19481;51.118;6.940;2023-03-11T00:23:52;2.19;73.30
33109;HTU21D;19481;51.118;6.940;2023-03-11T00:28:53;2.23;73.22
33109;HTU21D;19481;51.118;6.940;2023-03-11T00:33:55;2.17;73.12
33109;HTU21D;19481;51.118;6.940;2023-03-11T00:39:00;2.21;73.30
33109;HTU21D;19481;51.118;6.940;2023-03-11T00:44:05;2.22;73.38
33109;HTU21D;19481;51.118;6.940;2023-03-11T00:49:07;2.17;73.04
33109;HTU21D;19481;51.118;6.940;2023-03-11T00:54:10;2.20;73.14
33109;HTU21D;19481;51.118;6.940;2023-03-11T00:59:12;2.23;72.01
33109;HTU21D;19481;51.118;6.940;2023-03-11T01:04:13;2.21;72.32
33109;HTU21D;19481;51.118;6.940;2023-03-11T01:09:16;2.17;72.61
33109;HTU21D;19481;51.118;6.940;2023-03-11T01:14:18;2.20;72.86
33109;HTU21D;19481;51.118;6.940;2023-03-11T01:19:20;2.20;72.84
33109;HTU21D;19481;51.118;6.940;2023-03-11T01:24:23;2.22;73.08
33109;HTU21D;19481;51.118;6.940;2023-03-11T01:29:24;2.20;73.01
33109;HTU21D;19481;51.118;6.940;2023-03-11T01:34:26;2.21;73.09
33109;HTU21D;19481;51.118;6.940;2023-03-11T01:39:29;2.19;72.86
33109;HTU21D;19481;51.118;6.940;2023-03-11T01:44:31;2.17;72.96
33109;HTU21D;19481;51.118;6.940;2023-03-11T01:49:32;2.17;73.00
33109;HTU21D;19481;51.118;6.940;2023-03-11T01:54:37;2.15;73.10
33109;HTU21D;19481;51.118;6.940;2023-03-11T01:59:43;2.10;73.20
33109;HTU21D;19481;51.118;6.940;2023-03-11T02:04:47;2.08;73.15
33109;HTU21D;19481;51.118;6.940;2023-03-11T02:09:51;2.07;73.25
33109;HTU21D;19481;51.118;6.940;2023-03-11T02:14:53;2.10;73.20
33109;HTU21D;19481;51.118;6.940;2023-03-11T02:20:09;2.06;73.20
33109;HTU21D;19481;51.118;6.940;2023-03-11T02:25:15;2.05;73.03
33109;HTU21D;19481;51.118;6.940;2023-03-11T02:30:21;2.05;73.03
33109;HTU21D;19481;51.118;6.940;2023-03-11T02:35:24;2.05;72.64
33109;HTU21D;19481;51.118;6.940;2023-03-11T02:40:43;1.99;72.85
33109;HTU21D;19481;51.118;6.940;2023-03-11T02:45:49;1.86;72.84
33109;HTU21D;19481;51.118;6.940;2023-03-11T02:50:51;1.76;72.73
33109;HTU21D;19481;51.118;6.940;2023-03-11T02:55:52;1.61;72.58
33109;HTU21D;19481;51.118;6.940;2023-03-11T03:00:55;1.46;72.96
33109;HTU21D;19481;51.118;6.940;2023-03-11T03:05:57;1.39;72.93
33109;HTU21D;19481;51.118;6.940;2023-03-11T03:10:58;1.28;72.66
33109;HTU21D;19481;51.118;6.940;2023-03-11T03:16:02;1.20;72.84
33109;HTU21D;19481;51.118;6.940;2023-03-11T03:21:03;1.16;72.81
33109;HTU21D;19481;51.118;6.940;2023-03-11T03:26:05;1.05;72.24
33109;HTU21D;19481;51.118;6.940;2023-03-11T03:31:09;0.99;72.55
33109;HTU21D;19481;51.118;6.940;2023-03-11T03:36:12;0.92;72.50
33109;HTU21D;19481;51.118;6.940;2023-03-11T03:41:14;0.87;72.50
33109;HTU21D;19481;51.118;6.940;2023-03-11T03:46:17;0.81;72.51
33109;HTU21D;19481;51.118;6.940;2023-03-11T03:51:19;0.78;72.26
33109;HTU21D;19481;51.118;6.940;2023-03-11T03:56:20;0.65;72.28
33109;HTU21D;19481;51.118;6.940;2023-03-11T04:01:23;0.63;72.38
33109;HTU21D;19481;51.118;6.940;2023-03-11T04:06:26;0.55;72.13
33109;HTU21D;19481;51.118;6.940;2023-03-11T04:11:28;0.50;72.22
33109;HTU21D;19481;51.118;6.940;2023-03-11T04:16:31;0.43;72.36
33109;HTU21D;19481;51.118;6.940;2023-03-11T04:21:33;0.39;72.62
33109;HTU21D;19481;51.118;6.940;2023-03-11T04:26:35;0.42;72.80
33109;HTU21D;19481;51.118;6.940;2023-03-11T04:31:38;0.38;72.65
33109;HTU21D;19481;51.118;6.940;2023-03-11T04:36:40;0.33;72.74
33109;HTU21D;19481;51.118;6.940;2023-03-11T04:41:41;0.33;72.85
33109;HTU21D;19481;51.118;6.940;2023-03-11T04:46:44;0.25;72.83
33109;HTU21D;19481;51.118;6.940;2023-03-11T04:51:46;0.22;72.86
33109;HTU21D;19481;51.118;6.940;2023-03-11T04:56:47;0.19;72.89
33109;HTU21D;19481;51.118;6.940;2023-03-11T05:01:50;0.17;73.18
33109;HTU21D;19481;51.118;6.940;2023-03-11T05:06:52;0.20;73.13
33109;HTU21D;19481;51.118;6.940;2023-03-11T05:11:54;0.25;73.12
33109;HTU21D;19481;51.118;6.940;2023-03-11T05:16:57;0.16;73.18
33109;HTU21D;19481;51.118;6.940;2023-03-11T05:21:59;0.13;73.37
33109;HTU21D;19481;51.118;6.940;2023-03-11T05:27:02;0.01;73.46
33109;HTU21D;19481;51.118;6.940;2023-03-11T05:32:05;-0.05;73.73
33109;HTU21D;19481;51.118;6.940;2023-03-11T05:37:07;-0.13;73.83
33109;HTU21D;19481;51.118;6.940;2023-03-11T05:42:09;-0.21;73.90
33109;HTU21D;19481;51.118;6.940;2023-03-11T05:47:12;-0.21;74.02
33109;HTU21D;19481;51.118;6.940;2023-03-11T05:52:14;-0.19;74.09
33109;HTU21D;19481;51.118;6.940;2023-03-11T05:57:16;-0.16;74.17
33109;HTU21D;19481;51.118;6.940;2023-03-11T06:02:19;-0.07;74.07
33109;HTU21D;19481;51.118;6.940;2023-03-11T06:07:22;0.07;74.10
33109;HTU21D;19481;51.118;6.940;2023-03-11T06:12:24;0.16;73.97
33109;HTU21D;19481;51.118;6.940;2023-03-11T06:17:27;0.22;73.96
33109;HTU21D;19481;51.118;6.940;2023-03-11T06:22:28;0.39;73.85
33109;HTU21D;19481;51.118;6.940;2023-03-11T06:27:30;0.54;73.54
33109;HTU21D;19481;51.118;6.940;2023-03-11T06:32:33;0.71;73.26
33109;HTU21D;19481;51.118;6.940;2023-03-11T06:37:36;0.99;72.84
33109;HTU21D;19481;51.118;6.940;2023-03-11T06:42:38;1.09;72.39
33109;HTU21D;19481;51.118;6.940;2023-03-11T06:47:41;1.20;72.17
33109;HTU21D;19481;51.118;6.940;2023-03-11T06:52:42;1.31;71.93
33109;HTU21D;19481;51.118;6.940;2023-03-11T06:57:44;1.41;71.84
33109;HTU21D;19481;51.118;6.940;2023-03-11T07:02:47;1.57;71.69
33109;HTU21D;19481;51.118;6.940;2023-03-11T07:07:52;1.84;71.32
33109;HTU21D;19481;51.118;6.940;2023-03-11T07:12:54;2.05;70.59
33109;HTU21D;19481;51.118;6.940;2023-03-11T07:17:57;2.51;70.03
33109;HTU21D;19481;51.118;6.940;2023-03-11T07:22:59;2.82;69.29
33109;HTU21D;19481;51.118;6.940;2023-03-11T07:28:00;5.15;64.31
33109;HTU21D;19481;51.118;6.940;2023-03-11T07:33:03;9.02;54.85
33109;HTU21D;19481;51.118;6.940;2023-03-11T07:38:05;9.08;58.30
33109;HTU21D;19481;51.118;6.940;2023-03-11T07:43:06;12.52;51.81
33109;HTU21D;19481;51.118;6.940;2023-03-11T07:48:09;12.06;57.26
33109;HTU21D;19481;51.118;6.940;2023-03-11T07:53:11;14.03;54.46
33109;HTU21D;19481;51.118;6.940;2023-03-11T07:58:12;14.09;56.93
33109;HTU21D;19481;51.118;6.940;2023-03-11T08:03:16;14.09;59.14
33109;HTU21D;19481;51.118;6.940;2023-03-11T08:08:17;14.75;57.19
33109;HTU21D;19481;51.118;6.940;2023-03-11T08:13:19;15.95;54.50
33109;HTU21D;19481;51.118;6.940;2023-03-11T08:18:22;14.63;59.31
33109;HTU21D;19481;51.118;6.940;2023-03-11T08:23:23;15.03;58.69
33109;HTU21D;19481;51.118;6.940;2023-03-11T08:28:25;16.61;54.19
33109;HTU21D;19481;51.118;6.940;2023-03-11T08:33:28;16.29;55.28
33109;HTU21D;19481;51.118;6.940;2023-03-11T08:38:30;16.36;54.63
33109;HTU21D;19481;51.118;6.940;2023-03-11T08:43:31;13.47;64.01
33109;HTU21D;19481;51.118;6.940;2023-03-11T08:48:35;12.08;66.92
33109;HTU21D;19481;51.118;6.940;2023-03-11T08:53:37;12.35;63.85
33109;HTU21D;19481;51.118;6.940;2023-03-11T08:58:39;12.00;62.70
33109;HTU21D;19481;51.118;6.940;2023-03-11T09:03:42;11.30;63.20
33109;HTU21D;19481;51.118;6.940;2023-03-11T09:08:45;12.34;57.92
33109;HTU21D;19481;51.118;6.940;2023-03-11T09:13:47;12.43;56.68
33109;HTU21D;19481;51.118;6.940;2023-03-11T09:18:50;12.16;56.84
33109;HTU21D;19481;51.118;6.940;2023-03-11T09:23:52;11.75;56.68
33109;HTU21D;19481;51.118;6.940;2023-03-11T09:28:53;10.25;60.06
33109;HTU21D;19481;51.118;6.940;2023-03-11T09:33:56;9.27;61.70
33109;HTU21D;19481;51.118;6.940;2023-03-11T09:38:59;10.54;55.84
33109;HTU21D;19481;51.118;6.940;2023-03-11T09:44:11;10.26;52.82
33109;HTU21D;19481;51.118;6.940;2023-03-11T09:49:23;10.29;53.94
33109;HTU21D;19481;51.118;6.940;2023-03-11T09:54:28;10.28;54.06
33109;HTU21D;19481;51.118;6.940;2023-03-11T09:59:35;10.15;53.79
33109;HTU21D;19481;51.118;6.940;2023-03-11T10:04:43;10.70;50.95
33109;HTU21D;19481;51.118;6.940;2023-03-11T10:09:47;9.61;54.85
33109;HTU21D;19481;51.118;6.940;2023-03-11T10:15:05;10.31;47.94
33109;HTU21D;19481;51.118;6.940;2023-03-11T10:20:14;9.34;53.81
33109;HTU21D;19481;51.118;6.940;2023-03-11T10:25:20;10.18;50.94
33109;HTU21D;19481;51.118;6.940;2023-03-11T10:30:26;10.79;49.43
33109;HTU21D;19481;51.118;6.940;2023-03-11T10:35:36;10.89;45.54
33109;HTU21D;19481;51.118;6.940;2023-03-11T10:40:41;10.22;51.80
33109;HTU21D;19481;51.118;6.940;2023-03-11T10:45:43;10.42;51.07
33109;HTU21D;19481;51.118;6.940;2023-03-11T10:50:56;11.09;47.33
33109;HTU21D;19481;51.118;6.940;2023-03-11T10:56:01;10.20;51.80
33109;HTU21D;19481;51.118;6.940;2023-03-11T11:01:10;9.70;52.73
33109;HTU21D;19481;51.118;6.940;2023-03-11T11:06:25;9.94;50.71
33109;HTU21D;19481;51.118;6.940;2023-03-11T11:11:26;9.38;52.56
33109;HTU21D;19481;51.118;6.940;2023-03-11T11:16:28;9.88;50.71
33109;HTU21D;19481;51.118;6.940;2023-03-11T11:21:33;9.71;50.49
33109;HTU21D;19481;51.118;6.940;2023-03-11T11:26:36;8.80;52.52
33109;HTU21D;19481;51.118;6.940;2023-03-11T11:31:39;8.52;52.97
33109;HTU21D;19481;51.118;6.940;2023-03-11T11:36:42;7.98;52.46
33109;HTU21D;19481;51.118;6.940;2023-03-11T11:41:46;7.87;53.10
33109;HTU21D;19481;51.118;6.940;2023-03-11T11:46:51;7.63;52.70
33109;HTU21D;19481;51.118;6.940;2023-03-11T11:51:59;7.62;52.76
33109;HTU21D;19481;51.118;6.940;2023-03-11T11:57:10;7.69;50.30
33109;HTU21D;19481;51.118;6.940;2023-03-11T12:02:22;7.77;50.98
33109;HTU21D;19481;51.118;6.940;2023-03-11T12:07:46;8.67;47.91
33109;HTU21D;19481;51.118;6.940;2023-03-11T12:13:18;8.37;41.33
33109;HTU21D;19481;51.118;6.940;2023-03-11T12:18:25;8.12;50.08
33109;HTU21D;19481;51.118;6.940;2023-03-11T12:23:38;7.88;45.47
33109;HTU21D;19481;51.118;6.940;2023-03-11T12:28:48;8.07;48.70
33109;HTU21D;19481;51.118;6.940;2023-03-11T12:33:55;8.57;49.36
33109;HTU21D;19481;51.118;6.940;2023-03-11T12:39:02;8.49;47.73
33109;HTU21D;19481;51.118;6.940;2023-03-11T12:44:23;8.09;40.79
33109;HTU21D;19481;51.118;6.940;2023-03-11T12:49:26;8.22;47.63
33109;HTU21D;19481;51.118;6.940;2023-03-11T12:54:33;7.67;51.04
33109;HTU21D;19481;51.118;6.940;2023-03-11T13:00:00;7.98;48.26
33109;HTU21D;19481;51.118;6.940;2023-03-11T13:05:14;8.39;48.44
33109;HTU21D;19481;51.118;6.940;2023-03-11T13:10:33;8.34;45.87
33109;HTU21D;19481;51.118;6.940;2023-03-11T13:15:36;8.36;48.94
33109;HTU21D;19481;51.118;6.940;2023-03-11T13:20:47;8.42;48.41
33109;HTU21D;19481;51.118;6.940;2023-03-11T13:31:37;8.37;41.09
33109;HTU21D;19481;51.118;6.940;2023-03-11T13:36:50;8.14;44.22
33109;HTU21D;19481;51.118;6.940;2023-03-11T13:41:56;8.00;49.66
33109;HTU21D;19481;51.118;6.940;2023-03-11T13:47:03;8.34;48.99
33109;HTU21D;19481;51.118;6.940;2023-03-11T13:52:08;8.21;48.21
33109;HTU21D;19481;51.118;6.940;2023-03-11T13:57:24;8.16;45.90
33109;HTU21D;19481;51.118;6.940;2023-03-11T14:02:27;7.98;48.63
33109;HTU21D;19481;51.118;6.940;2023-03-11T14:07:30;8.15;47.99
33109;HTU21D;19481;51.118;6.940;2023-03-11T14:12:34;7.68;49.00
33109;HTU21D;19481;51.118;6.940;2023-03-11T14:17:36;11.58;37.24
33109;HTU21D;19481;51.118;6.940;2023-03-11T14:22:38;9.61;42.62
33109;HTU21D;19481;51.118;6.940;2023-03-11T14:27:45;8.96;44.68
33109;HTU21D;19481;51.118;6.940;2023-03-11T14:32:57;8.59;45.96
33109;HTU21D;19481;51.118;6.940;2023-03-11T14:37:59;8.72;46.62
33109;HTU21D;19481;51.118;6.940;2023-03-11T14:43:04;8.47;47.29
33109;HTU21D;19481;51.118;6.940;2023-03-11T14:48:11;8.96;46.08
33109;HTU21D;19481;51.118;6.940;2023-03-11T14:53:16;8.80;46.11
33109;HTU21D;19481;51.118;6.940;2023-03-11T14:58:25;9.20;37.46
33109;HTU21D;19481;51.118;6.940;2023-03-11T15:03:30;8.20;47.83
33109;HTU21D;19481;51.118;6.940;2023-03-11T15:08:35;8.29;48.11
33109;HTU21D;19481;51.118;6.940;2023-03-11T15:13:41;8.31;47.57
33109;HTU21D;19481;51.118;6.940;2023-03-11T15:18:43;7.61;49.15
33109;HTU21D;19481;51.118;6.940;2023-03-11T15:23:46;7.24;49.34
33109;HTU21D;19481;51.118;6.940;2023-03-11T15:28:58;7.48;46.96
33109;HTU21D;19481;51.118;6.940;2023-03-11T15:34:20;7.56;42.26
33109;HTU21D;19481;51.118;6.940;2023-03-11T15:39:27;7.61;47.50
33109;HTU21D;19481;51.118;6.940;2023-03-11T15:44:42;7.02;47.67
33109;HTU21D;19481;51.118;6.940;2023-03-11T15:49:49;6.83;47.49
33109;HTU21D;19481;51.118;6.940;2023-03-11T15:54:51;6.59;48.86
33109;HTU21D;19481;51.118;6.940;2023-03-11T15:59:55;6.51;48.67
33109;HTU21D;19481;51.118;6.940;2023-03-11T16:04:58;6.80;47.64
33109;HTU21D;19481;51.118;6.940;2023-03-11T16:10:00;7.07;46.77
33109;HTU21D;19481;51.118;6.940;2023-03-11T16:15:04;6.70;47.95
33109;HTU21D;19481;51.118;6.940;2023-03-11T16:20:06;6.59;48.21
33109;HTU21D;19481;51.118;6.940;2023-03-11T16:25:17;6.67;47.87
33109;HTU21D;19481;51.118;6.940;2023-03-11T16:30:21;6.60;48.19
33109;HTU21D;19481;51.118;6.940;2023-03-11T16:35:23;6.43;48.36
33109;HTU21D;19481;51.118;6.940;2023-03-11T16:40:26;6.27;48.92
33109;HTU21D;19481;51.118;6.940;2023-03-11T16:45:30;6.37;48.51
33109;HTU21D;19481;51.118;6.940;2023-03-11T16:50:32;6.21;48.60
33109;HTU21D;19481;51.118;6.940;2023-03-11T16:55:34;5.95;48.69
33109;HTU21D;19481;51.118;6.940;2023-03-11T17:00:37;5.84;49.02
33109;HTU21D;19481;51.118;6.940;2023-03-11T17:05:41;5.68;48.95
33109;HTU21D;19481;51.118;6.940;2023-03-11T17:10:43;5.57;48.95
33109;HTU21D;19481;51.118;6.940;2023-03-11T17:15:57;5.46;46.41
33109;HTU21D;19481;51.118;6.940;2023-03-11T17:20:58;5.39;49.18
33109;HTU21D;19481;51.118;6.940;2023-03-11T17:26:01;5.23;49.52
33109;HTU21D;19481;51.118;6.940;2023-03-11T17:31:04;5.12;49.64
33109;HTU21D;19481;51.118;6.940;2023-03-11T17:36:08;5.05;49.79
33109;HTU21D;19481;51.118;6.940;2023-03-11T17:41:12;4.91;50.05
33109;HTU21D;19481;51.118;6.940;2023-03-11T17:46:17;4.80;50.30
33109;HTU21D;19481;51.118;6.940;2023-03-11T17:51:21;4.64;50.63
33109;HTU21D;19481;51.118;6.940;2023-03-11T17:56:24;4.52;50.88
33109;HTU21D;19481;51.118;6.940;2023-03-11T18:01:27;4.34;51.45
33109;HTU21D;19481;51.118;6.940;2023-03-11T18:06:30;4.20;51.68
33109;HTU21D;19481;51.118;6.940;2023-03-11T18:11:31;4.04;52.24
33109;HTU21D;19481;51.118;6.940;2023-03-11T18:16:34;3.95;52.26
33109;HTU21D;19481;51.118;6.940;2023-03-11T18:21:36;3.82;52.63
33109;HTU21D;19481;51.118;6.940;2023-03-11T18:26:38;3.68;52.88
33109;HTU21D;19481;51.118;6.940;2023-03-11T18:31:41;3.54;53.22
33109;HTU21D;19481;51.118;6.940;2023-03-11T18:36:42;3.35;53.59
33109;HTU21D;19481;51.118;6.940;2023-03-11T18:41:44;3.18;53.99
33109;HTU21D;19481;51.118;6.940;2023-03-11T18:46:47;3.06;54.23
33109;HTU21D;19481;51.118;6.940;2023-03-11T18:51:49;2.97;54.43
33109;HTU21D;19481;51.118;6.940;2023-03-11T18:56:50;2.94;54.52
33109;HTU21D;19481;51.118;6.940;2023-03-11T19:01:53;2.73;54.87
33109;HTU21D;19481;51.118;6.940;2023-03-11T19:06:55;2.62;55.11
33109;HTU21D;19481;51.118;6.940;2023-03-11T19:11:56;2.51;55.30
33109;HTU21D;19481;51.118;6.940;2023-03-11T19:16:59;2.40;55.53
33109;HTU21D;19481;51.118;6.940;2023-03-11T19:22:01;2.34;55.59
33109;HTU21D;19481;51.118;6.940;2023-03-11T19:27:03;2.36;55.50
33109;HTU21D;19481;51.118;6.940;2023-03-11T19:32:06;2.21;55.99
33109;HTU21D;19481;51.118;6.940;2023-03-11T19:37:07;2.23;56.11
33109;HTU21D;19481;51.118;6.940;2023-03-11T19:42:09;2.19;56.16
33109;HTU21D;19481;51.118;6.940;2023-03-11T19:47:12;2.11;56.31
33109;HTU21D;19481;51.118;6.940;2023-03-11T19:52:14;1.87;56.68
33109;HTU21D;19481;51.118;6.940;2023-03-11T19:57:16;1.72;57.20
33109;HTU21D;19481;51.118;6.940;2023-03-11T20:02:19;1.66;57.25
33109;HTU21D;19481;51.118;6.940;2023-03-11T20:07:21;1.58;57.52
33109;HTU21D;19481;51.118;6.940;2023-03-11T20:12:23;1.57;57.51
33109;HTU21D;19481;51.118;6.940;2023-03-11T20:17:26;1.50;58.10
33109;HTU21D;19481;51.118;6.940;2023-03-11T20:22:27;1.53;58.07
33109;HTU21D;19481;51.118;6.940;2023-03-11T20:27:29;1.63;57.48
33109;HTU21D;19481;51.118;6.940;2023-03-11T20:32:32;1.49;57.66
33109;HTU21D;19481;51.118;6.940;2023-03-11T20:37:33;1.40;57.90
33109;HTU21D;19481;51.118;6.940;2023-03-11T20:42:35;1.39;58.13
33109;HTU21D;19481;51.118;6.940;2023-03-11T20:47:38;1.41;58.01
33109;HTU21D;19481;51.118;6.940;2023-03-11T20:52:43;1.25;58.15
33109;HTU21D;19481;51.118;6.940;2023-03-11T20:57:44;1.20;58.24
33109;HTU21D;19481;51.118;6.940;2023-03-11T21:02:47;1.20;58.58
33109;HTU21D;19481;51.118;6.940;2023-03-11T21:07:49;1.26;58.77
33109;HTU21D;19481;51.118;6.940;2023-03-11T21:12:50;1.26;58.92
33109;HTU21D;19481;51.118;6.940;2023-03-11T21:17:53;1.23;58.70
33109;HTU21D;19481;51.118;6.940;2023-03-11T21:22:55;1.09;58.87
33109;HTU21D;19481;51.118;6.940;2023-03-11T21:27:56;1.10;58.87
33109;HTU21D;19481;51.118;6.940;2023-03-11T21:32:59;1.17;58.70
33109;HTU21D;19481;51.118;6.940;2023-03-11T21:38:01;1.17;58.38
33109;HTU21D;19481;51.118;6.940;2023-03-11T21:43:02;1.10;58.32
33109;HTU21D;19481;51.118;6.940;2023-03-11T21:48:06;1.09;57.97
33109;HTU21D;19481;51.118;6.940;2023-03-11T21:53:08;1.17;57.66
33109;HTU21D;19481;51.118;6.940;2023-03-11T21:58:10;1.18;57.67
33109;HTU21D;19481;51.118;6.940;2023-03-11T22:03:13;1.17;57.67
33109;HTU21D;19481;51.118;6.940;2023-03-11T22:08:15;1.25;57.50
33109;HTU21D;19481;51.118;6.940;2023-03-11T22:13:17;1.36;57.16
33109;HTU21D;19481;51.118;6.940;2023-03-11T22:18:20;1.53;56.39
33109;HTU21D;19481;51.118;6.940;2023-03-11T22:23:21;1.67;56.08
33109;HTU21D;19481;51.118;6.940;2023-03-11T22:28:23;1.70;56.18
33109;HTU21D;19481;51.118;6.940;2023-03-11T22:33:26;1.72;56.27
33109;HTU21D;19481;51.118;6.940;2023-03-11T22:38:28;1.80;56.11
33109;HTU21D;19481;51.118;6.940;2023-03-11T22:43:30;1.80;56.21
33109;HTU21D;19481;51.118;6.940;2023-03-11T22:48:33;1.87;56.09
33109;HTU21D;19481;51.118;6.940;2023-03-11T22:53:35;1.92;56.00
33109;HTU21D;19481;51.118;6.940;2023-03-11T22:58:37;1.92;56.15
33109;HTU21D;19481;51.118;6.940;2023-03-11T23:03:41;1.91;56.11
33109;HTU21D;19481;51.118;6.940;2023-03-11T23:08:43;1.94;56.07
33109;HTU21D;19481;51.118;6.940;2023-03-11T23:13:45;1.94;56.17
33109;HTU21D;19481;51.118;6.940;2023-03-11T23:18:50;1.99;56.11
33109;HTU21D;19481;51.118;6.940;2023-03-11T23:23:52;2.01;56.09
33109;HTU21D;19481;51.118;6.940;2023-03-11T23:28:54;2.05;55.97
33109;HTU21D;19481;51.118;6.940;2023-03-11T23:33:58;2.07;56.01
33109;HTU21D;19481;51.118;6.940;2023-03-11T23:39:00;2.07;56.03
33109;HTU21D;19481;51.118;6.940;2023-03-11T23:44:02;2.08;56.03
33109;HTU21D;19481;51.118;6.940;2023-03-11T23:49:05;2.07;56.03
33109;HTU21D;19481;51.118;6.940;2023-03-11T23:54:06;2.11;55.94
33109;HTU21D;19481;51.118;6.940;2023-03-11T23:59:08;2.15;55.80
